sensor_id;sensor_type;location;lat;lon;timestamp;temperature;humidity
18287;DHT22;9269;50.838;12.094;2022-12-29T00:01:32;10.60;56.90
18287;DHT22;9269;50.838;12.094;2022-12-29T00:04:03;10.60;57.10
18287;DHT22;9269;50.838;12.094;2022-12-29T00:06:39;10.70;57.00
18287;DHT22;9269;50.838;12.094;2022-12-29T00:09:10;10.70;57.40
18287;DHT22;9269;50.838;12.094;2022-12-29T00:11:39;10.70;57.10
18287;DHT22;9269;50.838;12.094;2022-12-29T00:14:08;10.60;57.70
18287;DHT22;9269;50.838;12.094;2022-12-29T00:16:55;10.70;57.50
18287;DHT22;9269;50.838;12.094;2022-12-29T00:19:25;10.60;57.50
18287;DHT22;9269;50.838;12.094;2022-12-29T00:22:11;10.70;57.50
18287;DHT22;9269;50.838;12.094;2022-12-29T00:25:01;10.60;57.70
18287;DHT22;9269;50.838;12.094;2022-12-29T00:27:47;10.60;58.10
18287;DHT22;9269;50.838;12.094;2022-12-29T00:30:40;10.60;58.10
18287;DHT22;9269;50.838;12.094;2022-12-29T00:33:28;10.60;58.20
18287;DHT22;9269;50.838;12.094;2022-12-29T00:36:19;10.60;58.40
18287;DHT22;9269;50.838;12.094;2022-12-29T00:38:52;10.70;58.50
18287;DHT22;9269;50.838;12.094;2022-12-29T00:41:38;10.70;58.10
18287;DHT22;9269;50.838;12.094;2022-12-29T00:44:24;10.60;58.70
18287;DHT22;9269;50.838;12.094;2022-12-29T00:46:53;10.70;58.50
18287;DHT22;9269;50.838;12.094;2022-12-29T00:49:22;10.70;59.00
18287;DHT22;9269;50.838;12.094;2022-12-29T00:52:02;10.80;58.70
18287;DHT22;9269;50.838;12.094;2022-12-29T00:54:33;10.80;58.80
18287;DHT22;9269;50.838;12.094;2022-12-29T00:57:03;10.70;58.80
18287;DHT22;9269;50.838;12.094;2022-12-29T00:59:31;10.90;59.10
18287;DHT22;9269;50.838;12.094;2022-12-29T01:02:00;10.90;58.80
18287;DHT22;9269;50.838;12.094;2022-12-29T01:04:29;10.90;58.60
18287;DHT22;9269;50.838;12.094;2022-12-29T01:07:00;10.80;58.60
18287;DHT22;9269;50.838;12.094;2022-12-29T01:09:30;10.80;58.70
18287;DHT22;9269;50.838;12.094;2022-12-29T01:12:19;10.90;58.60
18287;DHT22;9269;50.838;12.094;2022-12-29T01:15:12;10.90;58.50
18287;DHT22;9269;50.838;12.094;2022-12-29T01:17:48;10.80;58.90
18287;DHT22;9269;50.838;12.094;2022-12-29T01:20:18;10.90;59.00
18287;DHT22;9269;50.838;12.094;2022-12-29T01:22:50;10.80;58.80
18287;DHT22;9269;50.838;12.094;2022-12-29T01:25:19;10.90;58.90
18287;DHT22;9269;50.838;12.094;2022-12-29T01:27:48;10.90;58.60
18287;DHT22;9269;50.838;12.094;2022-12-29T01:30:19;10.80;59.10
18287;DHT22;9269;50.838;12.094;2022-12-29T01:32:52;10.80;59.20
18287;DHT22;9269;50.838;12.094;2022-12-29T01:35:22;10.90;58.90
18287;DHT22;9269;50.838;12.094;2022-12-29T01:38:03;10.80;59.00
18287;DHT22;9269;50.838;12.094;2022-12-29T01:40:33;10.80;59.70
18287;DHT22;9269;50.838;12.094;2022-12-29T01:43:04;10.80;59.30
18287;DHT22;9269;50.838;12.094;2022-12-29T01:45:34;10.80;59.20
18287;DHT22;9269;50.838;12.094;2022-12-29T01:48:08;10.90;59.10
18287;DHT22;9269;50.838;12.094;2022-12-29T01:50:42;10.90;59.40
18287;DHT22;9269;50.838;12.094;2022-12-29T01:53:17;10.80;59.20
18287;DHT22;9269;50.838;12.094;2022-12-29T01:55:49;10.90;59.60
18287;DHT22;9269;50.838;12.094;2022-12-29T01:58:22;10.90;59.60
18287;DHT22;9269;50.838;12.094;2022-12-29T02:00:54;10.90;59.90
18287;DHT22;9269;50.838;12.094;2022-12-29T02:03:25;10.90;59.80
18287;DHT22;9269;50.838;12.094;2022-12-29T02:05:59;11.00;59.80
18287;DHT22;9269;50.838;12.094;2022-12-29T02:08:35;11.00;59.90
18287;DHT22;9269;50.838;12.094;2022-12-29T02:11:11;11.00;59.70
18287;DHT22;9269;50.838;12.094;2022-12-29T02:13:40;10.90;59.70
18287;DHT22;9269;50.838;12.094;2022-12-29T02:16:26;10.90;60.10
18287;DHT22;9269;50.838;12.094;2022-12-29T02:19:23;11.00;59.70
18287;DHT22;9269;50.838;12.094;2022-12-29T02:22:25;11.10;59.90
18287;DHT22;9269;50.838;12.094;2022-12-29T02:28:59;11.20;59.50
18287;DHT22;9269;50.838;12.094;2022-12-29T02:31:39;11.00;59.70
18287;DHT22;9269;50.838;12.094;2022-12-29T02:34:38;11.00;59.80
18287;DHT22;9269;50.838;12.094;2022-12-29T02:37:22;11.10;59.90
18287;DHT22;9269;50.838;12.094;2022-12-29T02:40:06;11.20;59.70
18287;DHT22;9269;50.838;12.094;2022-12-29T02:43:01;11.10;59.70
18287;DHT22;9269;50.838;12.094;2022-12-29T02:45:53;11.10;59.30
18287;DHT22;9269;50.838;12.094;2022-12-29T02:48:47;11.20;59.90
18287;DHT22;9269;50.838;12.094;2022-12-29T02:51:44;11.20;59.40
18287;DHT22;9269;50.838;12.094;2022-12-29T02:54:35;11.20;59.50
18287;DHT22;9269;50.838;12.094;2022-12-29T02:57:30;11.20;59.40
18287;DHT22;9269;50.838;12.094;2022-12-29T03:00:03;11.20;59.50
18287;DHT22;9269;50.838;12.094;2022-12-29T03:02:57;11.30;59.70
18287;DHT22;9269;50.838;12.094;2022-12-29T03:05:50;11.20;59.80
18287;DHT22;9269;50.838;12.094;2022-12-29T03:08:31;11.30;59.60
18287;DHT22;9269;50.838;12.094;2022-12-29T03:11:02;11.10;60.20
18287;DHT22;9269;50.838;12.094;2022-12-29T03:13:38;11.00;60.10
18287;DHT22;9269;50.838;12.094;2022-12-29T03:16:32;11.00;60.20
18287;DHT22;9269;50.838;12.094;2022-12-29T03:19:08;11.00;60.30
18287;DHT22;9269;50.838;12.094;2022-12-29T03:21:43;10.90;60.20
18287;DHT22;9269;50.838;12.094;2022-12-29T03:24:41;11.00;60.40
18287;DHT22;9269;50.838;12.094;2022-12-29T03:27:13;11.10;60.80
18287;DHT22;9269;50.838;12.094;2022-12-29T03:29:46;11.10;61.00
18287;DHT22;9269;50.838;12.094;2022-12-29T03:32:22;11.10;60.80
18287;DHT22;9269;50.838;12.094;2022-12-29T03:34:53;11.20;61.00
18287;DHT22;9269;50.838;12.094;2022-12-29T03:37:26;11.10;60.70
18287;DHT22;9269;50.838;12.094;2022-12-29T03:39:56;11.20;60.70
18287;DHT22;9269;50.838;12.094;2022-12-29T03:42:28;11.10;60.80
18287;DHT22;9269;50.838;12.094;2022-12-29T03:44:58;11.10;61.20
18287;DHT22;9269;50.838;12.094;2022-12-29T03:47:26;11.30;61.50
18287;DHT22;9269;50.838;12.094;2022-12-29T03:49:54;11.20;61.40
18287;DHT22;9269;50.838;12.094;2022-12-29T03:52:24;11.30;61.60
18287;DHT22;9269;50.838;12.094;2022-12-29T03:54:52;11.40;61.30
18287;DHT22;9269;50.838;12.094;2022-12-29T03:57:21;11.40;61.50
18287;DHT22;9269;50.838;12.094;2022-12-29T03:59:49;11.30;61.70
18287;DHT22;9269;50.838;12.094;2022-12-29T04:02:18;11.40;62.00
18287;DHT22;9269;50.838;12.094;2022-12-29T04:04:47;11.40;61.50
18287;DHT22;9269;50.838;12.094;2022-12-29T04:07:17;11.40;61.70
18287;DHT22;9269;50.838;12.094;2022-12-29T04:09:47;11.30;62.00
18287;DHT22;9269;50.838;12.094;2022-12-29T04:12:16;11.40;61.90
18287;DHT22;9269;50.838;12.094;2022-12-29T04:14:45;11.40;61.80
18287;DHT22;9269;50.838;12.094;2022-12-29T04:17:13;11.40;62.00
18287;DHT22;9269;50.838;12.094;2022-12-29T04:19:41;11.60;61.90
18287;DHT22;9269;50.838;12.094;2022-12-29T04:22:10;11.50;61.90
18287;DHT22;9269;50.838;12.094;2022-12-29T04:24:38;11.60;62.20
18287;DHT22;9269;50.838;12.094;2022-12-29T04:27:08;11.50;62.00
18287;DHT22;9269;50.838;12.094;2022-12-29T04:29:37;11.60;62.40
18287;DHT22;9269;50.838;12.094;2022-12-29T04:32:05;11.50;62.10
18287;DHT22;9269;50.838;12.094;2022-12-29T04:34:33;11.50;62.50
18287;DHT22;9269;50.838;12.094;2022-12-29T04:37:02;11.40;62.50
18287;DHT22;9269;50.838;12.094;2022-12-29T04:39:30;11.50;62.50
18287;DHT22;9269;50.838;12.094;2022-12-29T04:42:01;11.50;62.50
18287;DHT22;9269;50.838;12.094;2022-12-29T04:44:31;11.60;62.60
18287;DHT22;9269;50.838;12.094;2022-12-29T04:47:00;11.50;62.70
18287;DHT22;9269;50.838;12.094;2022-12-29T04:49:29;11.50;62.60
18287;DHT22;9269;50.838;12.094;2022-12-29T04:51:57;11.40;62.60
18287;DHT22;9269;50.838;12.094;2022-12-29T04:54:25;11.40;62.40
18287;DHT22;9269;50.838;12.094;2022-12-29T04:56:54;11.40;62.40
18287;DHT22;9269;50.838;12.094;2022-12-29T04:59:23;11.50;62.60
18287;DHT22;9269;50.838;12.094;2022-12-29T05:01:52;11.50;62.40
18287;DHT22;9269;50.838;12.094;2022-12-29T05:04:21;11.50;62.60
18287;DHT22;9269;50.838;12.094;2022-12-29T05:06:49;11.50;62.50
18287;DHT22;9269;50.838;12.094;2022-12-29T05:09:18;11.60;62.50
18287;DHT22;9269;50.838;12.094;2022-12-29T05:11:46;11.80;62.50
18287;DHT22;9269;50.838;12.094;2022-12-29T05:14:14;11.60;62.60
18287;DHT22;9269;50.838;12.094;2022-12-29T05:16:44;11.80;62.60
18287;DHT22;9269;50.838;12.094;2022-12-29T05:19:14;11.60;62.60
18287;DHT22;9269;50.838;12.094;2022-12-29T05:21:45;11.70;63.00
18287;DHT22;9269;50.838;12.094;2022-12-29T05:24:15;11.60;62.50
18287;DHT22;9269;50.838;12.094;2022-12-29T05:26:44;11.60;62.90
18287;DHT22;9269;50.838;12.094;2022-12-29T05:29:12;11.70;62.90
18287;DHT22;9269;50.838;12.094;2022-12-29T05:31:41;11.60;62.90
18287;DHT22;9269;50.838;12.094;2022-12-29T05:34:11;11.70;62.60
18287;DHT22;9269;50.838;12.094;2022-12-29T05:36:41;11.60;62.70
18287;DHT22;9269;50.838;12.094;2022-12-29T05:39:11;11.60;63.10
18287;DHT22;9269;50.838;12.094;2022-12-29T05:41:39;11.60;63.10
18287;DHT22;9269;50.838;12.094;2022-12-29T05:44:09;11.70;63.20
18287;DHT22;9269;50.838;12.094;2022-12-29T05:46:38;11.60;63.10
18287;DHT22;9269;50.838;12.094;2022-12-29T05:49:07;11.60;63.10
18287;DHT22;9269;50.838;12.094;2022-12-29T05:51:35;11.70;63.40
18287;DHT22;9269;50.838;12.094;2022-12-29T05:54:05;11.80;63.50
18287;DHT22;9269;50.838;12.094;2022-12-29T05:56:33;11.80;63.50
18287;DHT22;9269;50.838;12.094;2022-12-29T05:59:01;11.80;63.50
18287;DHT22;9269;50.838;12.094;2022-12-29T06:01:30;11.80;62.90
18287;DHT22;9269;50.838;12.094;2022-12-29T06:03:59;11.80;63.50
18287;DHT22;9269;50.838;12.094;2022-12-29T06:06:28;11.80;63.30
18287;DHT22;9269;50.838;12.094;2022-12-29T06:08:56;11.90;63.60
18287;DHT22;9269;50.838;12.094;2022-12-29T06:11:26;12.00;63.40
18287;DHT22;9269;50.838;12.094;2022-12-29T06:13:54;11.90;63.60
18287;DHT22;9269;50.838;12.094;2022-12-29T06:16:22;12.00;63.40
18287;DHT22;9269;50.838;12.094;2022-12-29T06:18:51;11.90;63.80
18287;DHT22;9269;50.838;12.094;2022-12-29T06:21:19;12.00;63.50
18287;DHT22;9269;50.838;12.094;2022-12-29T06:23:48;12.00;63.70
18287;DHT22;9269;50.838;12.094;2022-12-29T06:26:16;11.90;64.10
18287;DHT22;9269;50.838;12.094;2022-12-29T06:28:45;11.90;63.90
18287;DHT22;9269;50.838;12.094;2022-12-29T06:31:14;12.00;64.10
18287;DHT22;9269;50.838;12.094;2022-12-29T06:33:43;11.90;64.40
18287;DHT22;9269;50.838;12.094;2022-12-29T06:36:16;12.00;64.20
18287;DHT22;9269;50.838;12.094;2022-12-29T06:38:45;12.10;64.30
18287;DHT22;9269;50.838;12.094;2022-12-29T06:41:13;12.10;64.20
18287;DHT22;9269;50.838;12.094;2022-12-29T06:43:43;12.00;64.20
18287;DHT22;9269;50.838;12.094;2022-12-29T06:46:13;12.00;64.30
18287;DHT22;9269;50.838;12.094;2022-12-29T06:48:41;12.10;70.70
18287;DHT22;9269;50.838;12.094;2022-12-29T06:51:10;12.00;70.80
18287;DHT22;9269;50.838;12.094;2022-12-29T06:53:38;12.00;70.90
18287;DHT22;9269;50.838;12.094;2022-12-29T06:56:06;12.00;70.70
18287;DHT22;9269;50.838;12.094;2022-12-29T06:58:35;12.10;70.90
18287;DHT22;9269;50.838;12.094;2022-12-29T07:01:04;12.10;70.80
18287;DHT22;9269;50.838;12.094;2022-12-29T07:03:34;12.20;70.80
18287;DHT22;9269;50.838;12.094;2022-12-29T07:06:03;12.20;70.80
18287;DHT22;9269;50.838;12.094;2022-12-29T07:08:33;12.30;70.80
18287;DHT22;9269;50.838;12.094;2022-12-29T07:11:01;12.30;70.80
18287;DHT22;9269;50.838;12.094;2022-12-29T07:13:30;12.30;70.90
18287;DHT22;9269;50.838;12.094;2022-12-29T07:15:58;12.20;70.70
18287;DHT22;9269;50.838;12.094;2022-12-29T07:18:26;12.20;70.80
18287;DHT22;9269;50.838;12.094;2022-12-29T07:20:56;12.30;70.80
18287;DHT22;9269;50.838;12.094;2022-12-29T07:23:24;12.20;70.80
18287;DHT22;9269;50.838;12.094;2022-12-29T07:25:59;12.30;70.80
18287;DHT22;9269;50.838;12.094;2022-12-29T07:28:28;12.30;70.80
18287;DHT22;9269;50.838;12.094;2022-12-29T07:30:58;12.40;70.80
18287;DHT22;9269;50.838;12.094;2022-12-29T07:33:28;12.40;70.70
18287;DHT22;9269;50.838;12.094;2022-12-29T07:35:58;12.50;64.50
18287;DHT22;9269;50.838;12.094;2022-12-29T07:38:27;12.60;64.50
18287;DHT22;9269;50.838;12.094;2022-12-29T07:40:59;12.50;70.80
18287;DHT22;9269;50.838;12.094;2022-12-29T07:43:27;12.50;64.40
18287;DHT22;9269;50.838;12.094;2022-12-29T07:45:56;12.50;64.20
18287;DHT22;9269;50.838;12.094;2022-12-29T07:48:24;12.60;64.10
18287;DHT22;9269;50.838;12.094;2022-12-29T07:50:53;12.60;64.20
18287;DHT22;9269;50.838;12.094;2022-12-29T07:53:22;12.60;64.10
18287;DHT22;9269;50.838;12.094;2022-12-29T07:55:51;12.60;64.00
18287;DHT22;9269;50.838;12.094;2022-12-29T07:58:20;12.60;63.70
18287;DHT22;9269;50.838;12.094;2022-12-29T08:00:53;12.70;62.20
18287;DHT22;9269;50.838;12.094;2022-12-29T08:03:21;12.70;62.60
18287;DHT22;9269;50.838;12.094;2022-12-29T08:05:49;12.70;63.80
18287;DHT22;9269;50.838;12.094;2022-12-29T08:08:18;12.70;62.50
18287;DHT22;9269;50.838;12.094;2022-12-29T08:10:48;12.60;63.90
18287;DHT22;9269;50.838;12.094;2022-12-29T08:13:17;12.70;62.00
18287;DHT22;9269;50.838;12.094;2022-12-29T08:15:46;12.70;62.60
18287;DHT22;9269;50.838;12.094;2022-12-29T08:18:15;12.70;62.50
18287;DHT22;9269;50.838;12.094;2022-12-29T08:20:43;12.70;62.60
18287;DHT22;9269;50.838;12.094;2022-12-29T08:23:17;12.80;62.50
18287;DHT22;9269;50.838;12.094;2022-12-29T08:25:55;12.70;62.20
18287;DHT22;9269;50.838;12.094;2022-12-29T08:28:24;12.80;62.20
18287;DHT22;9269;50.838;12.094;2022-12-29T08:30:53;12.70;62.30
18287;DHT22;9269;50.838;12.094;2022-12-29T08:33:22;12.80;62.40
18287;DHT22;9269;50.838;12.094;2022-12-29T08:35:50;12.80;62.30
18287;DHT22;9269;50.838;12.094;2022-12-29T08:38:18;12.80;62.20
18287;DHT22;9269;50.838;12.094;2022-12-29T08:40:48;12.80;62.30
18287;DHT22;9269;50.838;12.094;2022-12-29T08:43:16;12.80;62.50
18287;DHT22;9269;50.838;12.094;2022-12-29T08:45:45;12.80;62.20
18287;DHT22;9269;50.838;12.094;2022-12-29T08:48:13;12.80;62.20
18287;DHT22;9269;50.838;12.094;2022-12-29T08:50:46;12.80;62.00
18287;DHT22;9269;50.838;12.094;2022-12-29T08:53:14;12.80;62.10
18287;DHT22;9269;50.838;12.094;2022-12-29T08:55:44;12.80;62.00
18287;DHT22;9269;50.838;12.094;2022-12-29T08:58:14;12.80;61.90
18287;DHT22;9269;50.838;12.094;2022-12-29T09:00:43;12.80;61.70
18287;DHT22;9269;50.838;12.094;2022-12-29T09:03:12;12.80;62.00
18287;DHT22;9269;50.838;12.094;2022-12-29T09:05:41;12.80;61.90
18287;DHT22;9269;50.838;12.094;2022-12-29T09:08:10;13.00;61.80
18287;DHT22;9269;50.838;12.094;2022-12-29T09:11:05;13.00;61.50
18287;DHT22;9269;50.838;12.094;2022-12-29T09:13:41;13.00;61.10
18287;DHT22;9269;50.838;12.094;2022-12-29T09:16:15;13.10;61.20
18287;DHT22;9269;50.838;12.094;2022-12-29T09:18:51;13.10;61.10
18287;DHT22;9269;50.838;12.094;2022-12-29T09:21:20;13.20;61.20
18287;DHT22;9269;50.838;12.094;2022-12-29T09:23:52;13.30;61.10
18287;DHT22;9269;50.838;12.094;2022-12-29T09:26:23;13.30;60.70
18287;DHT22;9269;50.838;12.094;2022-12-29T09:28:53;13.40;60.70
18287;DHT22;9269;50.838;12.094;2022-12-29T09:31:25;13.40;60.70
18287;DHT22;9269;50.838;12.094;2022-12-29T09:33:55;13.50;60.40
18287;DHT22;9269;50.838;12.094;2022-12-29T09:36:26;13.50;60.50
18287;DHT22;9269;50.838;12.094;2022-12-29T09:38:55;13.50;60.40
18287;DHT22;9269;50.838;12.094;2022-12-29T09:41:29;13.50;60.30
18287;DHT22;9269;50.838;12.094;2022-12-29T09:44:08;13.60;59.90
18287;DHT22;9269;50.838;12.094;2022-12-29T09:46:46;13.40;59.80
18287;DHT22;9269;50.838;12.094;2022-12-29T09:49:24;13.40;59.80
18287;DHT22;9269;50.838;12.094;2022-12-29T09:52:06;13.50;60.20
18287;DHT22;9269;50.838;12.094;2022-12-29T09:54:52;13.60;59.90
18287;DHT22;9269;50.838;12.094;2022-12-29T09:57:36;13.60;60.00
18287;DHT22;9269;50.838;12.094;2022-12-29T10:00:16;13.70;60.00
18287;DHT22;9269;50.838;12.094;2022-12-29T10:02:53;13.80;60.20
18287;DHT22;9269;50.838;12.094;2022-12-29T10:05:33;13.90;59.90
18287;DHT22;9269;50.838;12.094;2022-12-29T10:08:21;13.90;59.70
18287;DHT22;9269;50.838;12.094;2022-12-29T10:10:56;13.90;59.40
18287;DHT22;9269;50.838;12.094;2022-12-29T10:13:36;13.90;59.60
18287;DHT22;9269;50.838;12.094;2022-12-29T10:16:15;13.90;59.50
18287;DHT22;9269;50.838;12.094;2022-12-29T10:19:11;13.90;59.90
18287;DHT22;9269;50.838;12.094;2022-12-29T10:22:09;14.00;59.80
18287;DHT22;9269;50.838;12.094;2022-12-29T10:24:45;13.90;59.70
18287;DHT22;9269;50.838;12.094;2022-12-29T10:27:21;13.90;59.10
18287;DHT22;9269;50.838;12.094;2022-12-29T10:29:55;13.90;59.50
18287;DHT22;9269;50.838;12.094;2022-12-29T10:32:30;13.90;59.50
18287;DHT22;9269;50.838;12.094;2022-12-29T10:35:14;14.00;59.20
18287;DHT22;9269;50.838;12.094;2022-12-29T10:37:52;14.00;59.50
18287;DHT22;9269;50.838;12.094;2022-12-29T10:40:28;14.00;59.50
18287;DHT22;9269;50.838;12.094;2022-12-29T10:43:02;14.00;59.50
18287;DHT22;9269;50.838;12.094;2022-12-29T10:45:46;14.10;59.20
18287;DHT22;9269;50.838;12.094;2022-12-29T10:48:21;14.10;59.40
18287;DHT22;9269;50.838;12.094;2022-12-29T10:51:01;14.00;59.30
18287;DHT22;9269;50.838;12.094;2022-12-29T10:53:38;14.10;59.10
18287;DHT22;9269;50.838;12.094;2022-12-29T10:56:17;14.10;59.00
18287;DHT22;9269;50.838;12.094;2022-12-29T10:58:50;14.10;58.60
18287;DHT22;9269;50.838;12.094;2022-12-29T11:01:24;14.10;58.70
18287;DHT22;9269;50.838;12.094;2022-12-29T11:04:14;14.10;58.60
18287;DHT22;9269;50.838;12.094;2022-12-29T11:06:46;14.00;58.90
18287;DHT22;9269;50.838;12.094;2022-12-29T11:09:16;14.10;58.70
18287;DHT22;9269;50.838;12.094;2022-12-29T11:11:53;14.10;58.50
18287;DHT22;9269;50.838;12.094;2022-12-29T11:14:27;14.10;58.70
18287;DHT22;9269;50.838;12.094;2022-12-29T11:16:57;14.10;59.00
18287;DHT22;9269;50.838;12.094;2022-12-29T11:19:29;14.20;58.90
18287;DHT22;9269;50.838;12.094;2022-12-29T11:22:14;14.20;58.80
18287;DHT22;9269;50.838;12.094;2022-12-29T11:24:47;14.10;58.60
18287;DHT22;9269;50.838;12.094;2022-12-29T11:27:18;14.20;58.70
18287;DHT22;9269;50.838;12.094;2022-12-29T11:29:47;14.10;58.70
18287;DHT22;9269;50.838;12.094;2022-12-29T11:32:19;14.20;58.60
18287;DHT22;9269;50.838;12.094;2022-12-29T11:34:56;14.30;58.70
18287;DHT22;9269;50.838;12.094;2022-12-29T11:37:28;14.20;58.90
18287;DHT22;9269;50.838;12.094;2022-12-29T11:40:02;14.30;58.40
18287;DHT22;9269;50.838;12.094;2022-12-29T11:42:35;14.30;58.50
18287;DHT22;9269;50.838;12.094;2022-12-29T11:45:06;14.30;58.20
18287;DHT22;9269;50.838;12.094;2022-12-29T11:47:37;14.30;58.30
18287;DHT22;9269;50.838;12.094;2022-12-29T11:50:07;14.40;58.00
18287;DHT22;9269;50.838;12.094;2022-12-29T11:52:37;14.30;58.00
18287;DHT22;9269;50.838;12.094;2022-12-29T11:55:17;14.40;57.60
18287;DHT22;9269;50.838;12.094;2022-12-29T11:57:47;14.30;57.90
18287;DHT22;9269;50.838;12.094;2022-12-29T12:00:18;14.40;58.00
18287;DHT22;9269;50.838;12.094;2022-12-29T12:02:54;14.40;57.30
18287;DHT22;9269;50.838;12.094;2022-12-29T12:05:33;14.40;57.30
18287;DHT22;9269;50.838;12.094;2022-12-29T12:08:11;14.40;57.30
18287;DHT22;9269;50.838;12.094;2022-12-29T12:10:52;14.40;57.00
18287;DHT22;9269;50.838;12.094;2022-12-29T12:13:28;14.50;56.90
18287;DHT22;9269;50.838;12.094;2022-12-29T12:16:05;14.40;56.80
18287;DHT22;9269;50.838;12.094;2022-12-29T12:18:42;14.40;56.50
18287;DHT22;9269;50.838;12.094;2022-12-29T12:21:36;14.40;56.40
18287;DHT22;9269;50.838;12.094;2022-12-29T12:24:22;14.40;56.30
18287;DHT22;9269;50.838;12.094;2022-12-29T12:27:00;14.40;56.20
18287;DHT22;9269;50.838;12.094;2022-12-29T12:29:35;14.40;56.10
18287;DHT22;9269;50.838;12.094;2022-12-29T12:32:12;14.40;55.80
18287;DHT22;9269;50.838;12.094;2022-12-29T12:34:44;14.40;55.70
18287;DHT22;9269;50.838;12.094;2022-12-29T12:37:37;14.40;56.10
18287;DHT22;9269;50.838;12.094;2022-12-29T12:40:34;14.40;55.70
18287;DHT22;9269;50.838;12.094;2022-12-29T12:43:18;14.40;55.50
18287;DHT22;9269;50.838;12.094;2022-12-29T12:45:59;14.40;55.90
18287;DHT22;9269;50.838;12.094;2022-12-29T12:48:53;14.50;56.20
18287;DHT22;9269;50.838;12.094;2022-12-29T12:51:33;14.40;55.70
18287;DHT22;9269;50.838;12.094;2022-12-29T12:54:20;14.40;55.90
18287;DHT22;9269;50.838;12.094;2022-12-29T12:57:02;14.50;55.40
18287;DHT22;9269;50.838;12.094;2022-12-29T12:59:42;14.40;55.80
18287;DHT22;9269;50.838;12.094;2022-12-29T13:02:23;14.30;55.80
18287;DHT22;9269;50.838;12.094;2022-12-29T13:05:34;14.30;55.80
18287;DHT22;9269;50.838;12.094;2022-12-29T13:08:24;14.40;55.20
18287;DHT22;9269;50.838;12.094;2022-12-29T13:11:01;14.40;55.60
18287;DHT22;9269;50.838;12.094;2022-12-29T13:13:52;14.30;55.50
18287;DHT22;9269;50.838;12.094;2022-12-29T13:16:31;14.30;55.80
18287;DHT22;9269;50.838;12.094;2022-12-29T13:19:06;14.30;55.60
18287;DHT22;9269;50.838;12.094;2022-12-29T13:21:50;14.30;55.90
18287;DHT22;9269;50.838;12.094;2022-12-29T13:24:38;14.30;55.50
18287;DHT22;9269;50.838;12.094;2022-12-29T13:27:18;14.30;55.50
18287;DHT22;9269;50.838;12.094;2022-12-29T13:30:13;14.30;55.70
18287;DHT22;9269;50.838;12.094;2022-12-29T13:33:14;14.30;55.30
18287;DHT22;9269;50.838;12.094;2022-12-29T13:36:36;14.30;55.60
18287;DHT22;9269;50.838;12.094;2022-12-29T13:39:57;14.20;56.00
18287;DHT22;9269;50.838;12.094;2022-12-29T13:42:55;14.10;56.40
18287;DHT22;9269;50.838;12.094;2022-12-29T13:45:53;13.90;57.00
18287;DHT22;9269;50.838;12.094;2022-12-29T13:48:50;14.00;57.10
18287;DHT22;9269;50.838;12.094;2022-12-29T13:51:21;14.00;57.30
18287;DHT22;9269;50.838;12.094;2022-12-29T13:54:01;13.90;57.60
18287;DHT22;9269;50.838;12.094;2022-12-29T13:56:35;14.00;57.70
18287;DHT22;9269;50.838;12.094;2022-12-29T13:59:16;13.80;58.10
18287;DHT22;9269;50.838;12.094;2022-12-29T14:01:52;13.90;57.20
18287;DHT22;9269;50.838;12.094;2022-12-29T14:04:25;13.90;57.50
18287;DHT22;9269;50.838;12.094;2022-12-29T14:07:00;13.90;57.50
18287;DHT22;9269;50.838;12.094;2022-12-29T14:09:42;13.90;57.00
18287;DHT22;9269;50.838;12.094;2022-12-29T14:12:20;13.80;57.50
18287;DHT22;9269;50.838;12.094;2022-12-29T14:14:51;13.80;56.80
18287;DHT22;9269;50.838;12.094;2022-12-29T14:17:20;13.80;56.90
18287;DHT22;9269;50.838;12.094;2022-12-29T14:19:52;13.80;56.70
18287;DHT22;9269;50.838;12.094;2022-12-29T14:22:26;13.70;56.40
18287;DHT22;9269;50.838;12.094;2022-12-29T14:25:01;13.80;56.10
18287;DHT22;9269;50.838;12.094;2022-12-29T14:27:55;13.70;56.00
18287;DHT22;9269;50.838;12.094;2022-12-29T14:30:51;13.60;55.70
18287;DHT22;9269;50.838;12.094;2022-12-29T14:33:21;13.60;55.20
18287;DHT22;9269;50.838;12.094;2022-12-29T14:35:54;13.60;55.40
18287;DHT22;9269;50.838;12.094;2022-12-29T14:38:29;13.60;55.10
18287;DHT22;9269;50.838;12.094;2022-12-29T14:41:25;13.50;54.70
18287;DHT22;9269;50.838;12.094;2022-12-29T14:44:01;13.50;54.50
18287;DHT22;9269;50.838;12.094;2022-12-29T14:46:54;13.50;54.60
18287;DHT22;9269;50.838;12.094;2022-12-29T14:49:25;13.50;54.40
18287;DHT22;9269;50.838;12.094;2022-12-29T14:52:05;13.40;54.70
18287;DHT22;9269;50.838;12.094;2022-12-29T14:54:44;13.40;55.00
18287;DHT22;9269;50.838;12.094;2022-12-29T14:57:20;13.40;54.90
18287;DHT22;9269;50.838;12.094;2022-12-29T14:59:57;13.40;55.10
18287;DHT22;9269;50.838;12.094;2022-12-29T15:02:45;13.30;55.20
18287;DHT22;9269;50.838;12.094;2022-12-29T15:05:34;13.30;55.10
18287;DHT22;9269;50.838;12.094;2022-12-29T15:08:08;13.30;54.80
18287;DHT22;9269;50.838;12.094;2022-12-29T15:10:42;13.20;55.20
18287;DHT22;9269;50.838;12.094;2022-12-29T15:13:16;13.30;54.90
18287;DHT22;9269;50.838;12.094;2022-12-29T15:15:47;13.20;54.70
18287;DHT22;9269;50.838;12.094;2022-12-29T15:18:25;13.10;54.90
18287;DHT22;9269;50.838;12.094;2022-12-29T15:20:56;13.20;54.90
18287;DHT22;9269;50.838;12.094;2022-12-29T15:23:26;13.10;55.00
18287;DHT22;9269;50.838;12.094;2022-12-29T15:25:57;13.10;54.70
18287;DHT22;9269;50.838;12.094;2022-12-29T15:28:27;13.10;54.80
18287;DHT22;9269;50.838;12.094;2022-12-29T15:31:02;13.10;55.30
18287;DHT22;9269;50.838;12.094;2022-12-29T15:33:38;13.00;54.90
18287;DHT22;9269;50.838;12.094;2022-12-29T15:36:11;13.00;55.30
18287;DHT22;9269;50.838;12.094;2022-12-29T15:38:40;13.00;55.30
18287;DHT22;9269;50.838;12.094;2022-12-29T15:41:23;12.90;55.30
18287;DHT22;9269;50.838;12.094;2022-12-29T15:44:04;12.90;55.10
18287;DHT22;9269;50.838;12.094;2022-12-29T15:46:36;12.80;55.10
18287;DHT22;9269;50.838;12.094;2022-12-29T15:49:07;12.90;55.00
18287;DHT22;9269;50.838;12.094;2022-12-29T15:51:38;12.80;55.20
18287;DHT22;9269;50.838;12.094;2022-12-29T15:54:15;12.80;55.30
18287;DHT22;9269;50.838;12.094;2022-12-29T15:56:44;12.70;55.50
18287;DHT22;9269;50.838;12.094;2022-12-29T15:59:24;12.70;55.50
18287;DHT22;9269;50.838;12.094;2022-12-29T16:01:54;12.70;55.40
18287;DHT22;9269;50.838;12.094;2022-12-29T16:04:26;12.80;55.50
18287;DHT22;9269;50.838;12.094;2022-12-29T16:06:57;12.70;55.50
18287;DHT22;9269;50.838;12.094;2022-12-29T16:09:30;12.60;56.70
18287;DHT22;9269;50.838;12.094;2022-12-29T16:12:02;12.70;55.60
18287;DHT22;9269;50.838;12.094;2022-12-29T16:14:34;12.60;56.80
18287;DHT22;9269;50.838;12.094;2022-12-29T16:17:05;12.60;57.20
18287;DHT22;9269;50.838;12.094;2022-12-29T16:19:37;12.60;57.10
18287;DHT22;9269;50.838;12.094;2022-12-29T16:22:11;12.50;56.90
18287;DHT22;9269;50.838;12.094;2022-12-29T16:24:43;12.50;56.90